sensor_id;sensor_type;location;lat;lon;timestamp;P1;durP1;ratioP1;P2;durP2;ratioP2
23302;SDS011;11820;48.738;9.092;2022-08-24T00:01:46;4.77;;;2.43;;
23302;SDS011;11820;48.738;9.092;2022-08-24T00:04:11;3.13;;;2.63;;
23302;SDS011;11820;48.738;9.092;2022-08-24T00:06:36;4.43;;;2.50;;
23302;SDS011;11820;48.738;9.092;2022-08-24T00:09:02;4.63;;;2.70;;
23302;SDS011;11820;48.738;9.092;2022-08-24T00:11:28;4.83;;;2.90;;
23302;SDS011;11820;48.738;9.092;2022-08-24T00:13:53;3.43;;;2.30;;
23302;SDS011;11820;48.738;9.092;2022-08-24T00:16:19;2.90;;;2.20;;
23302;SDS011;11820;48.738;9.092;2022-08-24T00:18:45;2.93;;;2.63;;
23302;SDS011;11820;48.738;9.092;2022-08-24T00:21:12;3.83;;;2.30;;
23302;SDS011;11820;48.738;9.092;2022-08-24T00:23:37;2.73;;;2.37;;
23302;SDS011;11820;48.738;9.092;2022-08-24T00:26:03;3.63;;;2.57;;
23302;SDS011;11820;48.738;9.092;2022-08-24T00:28:29;3.07;;;2.70;;
23302;SDS011;11820;48.738;9.092;2022-08-24T00:30:54;4.03;;;2.63;;
23302;SDS011;11820;48.738;9.092;2022-08-24T00:33:20;3.80;;;2.90;;
23302;SDS011;11820;48.738;9.092;2022-08-24T00:35:45;4.23;;;2.60;;
23302;SDS011;11820;48.738;9.092;2022-08-24T00:38:10;2.63;;;2.17;;
23302;SDS011;11820;48.738;9.092;2022-08-24T00:40:37;3.03;;;2.70;;
23302;SDS011;11820;48.738;9.092;2022-08-24T00:43:05;3.80;;;2.80;;
23302;SDS011;11820;48.738;9.092;2022-08-24T00:45:46;2.87;;;2.27;;
23302;SDS011;11820;48.738;9.092;2022-08-24T00:48:20;3.23;;;2.27;;
23302;SDS011;11820;48.738;9.092;2022-08-24T00:50:53;3.10;;;2.90;;
23302;SDS011;11820;48.738;9.092;2022-08-24T00:53:24;2.60;;;2.40;;
23302;SDS011;11820;48.738;9.092;2022-08-24T00:55:56;4.83;;;2.60;;
23302;SDS011;11820;48.738;9.092;2022-08-24T00:58:31;2.40;;;2.23;;
23302;SDS011;11820;48.738;9.092;2022-08-24T01:01:06;3.10;;;2.63;;
23302;SDS011;11820;48.738;9.092;2022-08-24T01:03:32;3.37;;;2.53;;
23302;SDS011;11820;48.738;9.092;2022-08-24T01:05:59;3.00;;;2.63;;
23302;SDS011;11820;48.738;9.092;2022-08-24T01:08:25;2.77;;;2.20;;
23302;SDS011;11820;48.738;9.092;2022-08-24T01:10:53;2.83;;;2.63;;
23302;SDS011;11820;48.738;9.092;2022-08-24T01:13:22;4.03;;;2.57;;
23302;SDS011;11820;48.738;9.092;2022-08-24T01:15:50;4.30;;;2.60;;
23302;SDS011;11820;48.738;9.092;2022-08-24T01:18:19;3.07;;;2.37;;
23302;SDS011;11820;48.738;9.092;2022-08-24T01:21:15;4.60;;;2.87;;
23302;SDS011;11820;48.738;9.092;2022-08-24T01:26:48;2.50;;;2.30;;
23302;SDS011;11820;48.738;9.092;2022-08-24T01:29:15;3.80;;;2.90;;
23302;SDS011;11820;48.738;9.092;2022-08-24T01:31:43;2.60;;;2.40;;
23302;SDS011;11820;48.738;9.092;2022-08-24T01:34:09;2.97;;;2.63;;
23302;SDS011;11820;48.738;9.092;2022-08-24T01:36:38;3.53;;;2.60;;
23302;SDS011;11820;48.738;9.092;2022-08-24T01:39:14;3.07;;;2.70;;
23302;SDS011;11820;48.738;9.092;2022-08-24T01:41:43;2.57;;;2.37;;
23302;SDS011;11820;48.738;9.092;2022-08-24T01:44:08;2.90;;;2.53;;
23302;SDS011;11820;48.738;9.092;2022-08-24T01:46:34;2.97;;;2.73;;
23302;SDS011;11820;48.738;9.092;2022-08-24T01:48:59;3.00;;;2.50;;
23302;SDS011;11820;48.738;9.092;2022-08-24T01:51:29;2.80;;;2.60;;
23302;SDS011;11820;48.738;9.092;2022-08-24T01:53:57;3.70;;;2.97;;
23302;SDS011;11820;48.738;9.092;2022-08-24T01:56:24;3.37;;;2.57;;
23302;SDS011;11820;48.738;9.092;2022-08-24T01:58:50;3.30;;;2.67;;
23302;SDS011;11820;48.738;9.092;2022-08-24T02:01:15;4.87;;;2.60;;
23302;SDS011;11820;48.738;9.092;2022-08-24T02:03:42;2.70;;;2.50;;
23302;SDS011;11820;48.738;9.092;2022-08-24T02:06:08;3.67;;;2.70;;
23302;SDS011;11820;48.738;9.092;2022-08-24T02:08:33;2.87;;;2.63;;
23302;SDS011;11820;48.738;9.092;2022-08-24T02:11:01;3.20;;;2.67;;
23302;SDS011;11820;48.738;9.092;2022-08-24T02:13:33;2.50;;;2.30;;
23302;SDS011;11820;48.738;9.092;2022-08-24T02:15:59;3.07;;;2.73;;
23302;SDS011;11820;48.738;9.092;2022-08-24T02:18:25;2.63;;;2.37;;
23302;SDS011;11820;48.738;9.092;2022-08-24T02:20:50;3.97;;;2.03;;
23302;SDS011;11820;48.738;9.092;2022-08-24T02:23:17;3.77;;;2.67;;
23302;SDS011;11820;48.738;9.092;2022-08-24T02:25:43;2.50;;;2.13;;
23302;SDS011;11820;48.738;9.092;2022-08-24T02:28:09;3.67;;;2.43;;
23302;SDS011;11820;48.738;9.092;2022-08-24T02:30:34;2.70;;;2.47;;
23302;SDS011;11820;48.738;9.092;2022-08-24T02:32:59;2.50;;;2.23;;
23302;SDS011;11820;48.738;9.092;2022-08-24T02:35:25;4.77;;;2.60;;
23302;SDS011;11820;48.738;9.092;2022-08-24T02:37:52;6.00;;;3.00;;
23302;SDS011;11820;48.738;9.092;2022-08-24T02:40:17;3.17;;;2.50;;
23302;SDS011;11820;48.738;9.092;2022-08-24T02:42:43;2.90;;;2.50;;
23302;SDS011;11820;48.738;9.092;2022-08-24T02:45:09;4.60;;;2.83;;
23302;SDS011;11820;48.738;9.092;2022-08-24T02:47:35;4.53;;;2.80;;
23302;SDS011;11820;48.738;9.092;2022-08-24T02:50:01;5.37;;;2.80;;
23302;SDS011;11820;48.738;9.092;2022-08-24T02:52:28;2.87;;;2.53;;
23302;SDS011;11820;48.738;9.092;2022-08-24T02:54:53;3.73;;;2.67;;
23302;SDS011;11820;48.738;9.092;2022-08-24T02:57:19;4.50;;;2.73;;
23302;SDS011;11820;48.738;9.092;2022-08-24T02:59:44;4.00;;;2.93;;
23302;SDS011;11820;48.738;9.092;2022-08-24T03:02:10;4.77;;;2.80;;
23302;SDS011;11820;48.738;9.092;2022-08-24T03:04:35;3.77;;;2.80;;
23302;SDS011;11820;48.738;9.092;2022-08-24T03:07:01;3.50;;;2.63;;
23302;SDS011;11820;48.738;9.092;2022-08-24T03:09:26;4.23;;;2.90;;
23302;SDS011;11820;48.738;9.092;2022-08-24T03:11:51;3.93;;;3.00;;
23302;SDS011;11820;48.738;9.092;2022-08-24T03:14:17;4.13;;;2.70;;
23302;SDS011;11820;48.738;9.092;2022-08-24T03:16:43;4.00;;;2.60;;
23302;SDS011;11820;48.738;9.092;2022-08-24T03:19:09;4.00;;;2.90;;
23302;SDS011;11820;48.738;9.092;2022-08-24T03:21:34;2.83;;;2.63;;
23302;SDS011;11820;48.738;9.092;2022-08-24T03:24:00;3.87;;;2.93;;
23302;SDS011;11820;48.738;9.092;2022-08-24T03:26:25;3.43;;;3.10;;
23302;SDS011;11820;48.738;9.092;2022-08-24T03:28:50;3.30;;;2.83;;
23302;SDS011;11820;48.738;9.092;2022-08-24T03:31:16;3.40;;;3.10;;
23302;SDS011;11820;48.738;9.092;2022-08-24T03:33:42;5.03;;;2.90;;
23302;SDS011;11820;48.738;9.092;2022-08-24T03:36:07;4.63;;;3.03;;
23302;SDS011;11820;48.738;9.092;2022-08-24T03:38:33;2.80;;;2.60;;
23302;SDS011;11820;48.738;9.092;2022-08-24T03:40:58;3.33;;;3.03;;
23302;SDS011;11820;48.738;9.092;2022-08-24T03:43:24;4.40;;;3.10;;
23302;SDS011;11820;48.738;9.092;2022-08-24T03:46:08;4.03;;;3.63;;
23302;SDS011;11820;48.738;9.092;2022-08-24T03:48:35;4.70;;;3.10;;
23302;SDS011;11820;48.738;9.092;2022-08-24T03:51:01;4.97;;;2.70;;
23302;SDS011;11820;48.738;9.092;2022-08-24T03:53:27;6.53;;;3.53;;
23302;SDS011;11820;48.738;9.092;2022-08-24T03:55:53;3.67;;;3.37;;
23302;SDS011;11820;48.738;9.092;2022-08-24T03:58:18;3.80;;;3.23;;
23302;SDS011;11820;48.738;9.092;2022-08-24T04:00:43;4.43;;;3.37;;
23302;SDS011;11820;48.738;9.092;2022-08-24T04:03:09;4.40;;;3.20;;
23302;SDS011;11820;48.738;9.092;2022-08-24T04:05:35;3.80;;;3.40;;
23302;SDS011;11820;48.738;9.092;2022-08-24T04:08:02;3.77;;;3.03;;
23302;SDS011;11820;48.738;9.092;2022-08-24T04:10:29;3.63;;;3.00;;
23302;SDS011;11820;48.738;9.092;2022-08-24T04:12:55;3.30;;;3.00;;
23302;SDS011;11820;48.738;9.092;2022-08-24T04:15:20;3.97;;;3.57;;
23302;SDS011;11820;48.738;9.092;2022-08-24T04:17:48;5.03;;;3.33;;
23302;SDS011;11820;48.738;9.092;2022-08-24T04:20:13;5.73;;;3.40;;
23302;SDS011;11820;48.738;9.092;2022-08-24T04:22:39;3.43;;;3.13;;
23302;SDS011;11820;48.738;9.092;2022-08-24T04:25:04;4.93;;;3.63;;
23302;SDS011;11820;48.738;9.092;2022-08-24T04:27:30;6.93;;;3.23;;
23302;SDS011;11820;48.738;9.092;2022-08-24T04:29:55;3.33;;;3.00;;
23302;SDS011;11820;48.738;9.092;2022-08-24T04:32:21;3.57;;;3.23;;
23302;SDS011;11820;48.738;9.092;2022-08-24T04:34:46;4.63;;;3.33;;
23302;SDS011;11820;48.738;9.092;2022-08-24T04:37:11;4.37;;;3.20;;
23302;SDS011;11820;48.738;9.092;2022-08-24T04:39:37;3.57;;;3.27;;
23302;SDS011;11820;48.738;9.092;2022-08-24T04:42:03;4.20;;;3.30;;
23302;SDS011;11820;48.738;9.092;2022-08-24T04:44:29;3.43;;;3.20;;
23302;SDS011;11820;48.738;9.092;2022-08-24T04:46:55;4.37;;;3.27;;
23302;SDS011;11820;48.738;9.092;2022-08-24T04:49:21;3.70;;;3.40;;
23302;SDS011;11820;48.738;9.092;2022-08-24T04:51:46;3.27;;;2.90;;
23302;SDS011;11820;48.738;9.092;2022-08-24T04:54:12;3.13;;;2.90;;
23302;SDS011;11820;48.738;9.092;2022-08-24T04:56:37;4.20;;;3.27;;
23302;SDS011;11820;48.738;9.092;2022-08-24T04:59:03;7.00;;;3.40;;
23302;SDS011;11820;48.738;9.092;2022-08-24T05:01:29;2.80;;;2.60;;
23302;SDS011;11820;48.738;9.092;2022-08-24T05:03:57;4.27;;;3.13;;
23302;SDS011;11820;48.738;9.092;2022-08-24T05:06:24;3.70;;;3.30;;
23302;SDS011;11820;48.738;9.092;2022-08-24T05:08:53;4.43;;;3.27;;
23302;SDS011;11820;48.738;9.092;2022-08-24T05:11:19;4.67;;;3.40;;
23302;SDS011;11820;48.738;9.092;2022-08-24T05:13:45;3.80;;;2.63;;
23302;SDS011;11820;48.738;9.092;2022-08-24T05:16:12;3.47;;;3.17;;
23302;SDS011;11820;48.738;9.092;2022-08-24T05:18:39;3.57;;;3.17;;
23302;SDS011;11820;48.738;9.092;2022-08-24T05:21:06;4.90;;;3.20;;
23302;SDS011;11820;48.738;9.092;2022-08-24T05:23:33;3.73;;;3.43;;
23302;SDS011;11820;48.738;9.092;2022-08-24T05:26:05;5.47;;;3.10;;
23302;SDS011;11820;48.738;9.092;2022-08-24T05:28:34;4.07;;;3.67;;
23302;SDS011;11820;48.738;9.092;2022-08-24T05:31:33;5.57;;;3.60;;
23302;SDS011;11820;48.738;9.092;2022-08-24T05:33:53;3.70;;;3.10;;
23302;SDS011;11820;48.738;9.092;2022-08-24T05:38:45;5.10;;;2.90;;
23302;SDS011;11820;48.738;9.092;2022-08-24T05:41:11;7.80;;;3.77;;
23302;SDS011;11820;48.738;9.092;2022-08-24T05:43:37;4.47;;;2.93;;
23302;SDS011;11820;48.738;9.092;2022-08-24T05:46:03;6.33;;;3.30;;
23302;SDS011;11820;48.738;9.092;2022-08-24T05:48:29;3.37;;;3.07;;
23302;SDS011;11820;48.738;9.092;2022-08-24T05:50:55;4.87;;;3.27;;
23302;SDS011;11820;48.738;9.092;2022-08-24T05:53:21;4.83;;;3.43;;
23302;SDS011;11820;48.738;9.092;2022-08-24T05:55:48;4.73;;;3.23;;
23302;SDS011;11820;48.738;9.092;2022-08-24T05:58:13;5.90;;;3.63;;
23302;SDS011;11820;48.738;9.092;2022-08-24T06:00:39;3.73;;;3.20;;
23302;SDS011;11820;48.738;9.092;2022-08-24T06:03:04;4.07;;;3.53;;
23302;SDS011;11820;48.738;9.092;2022-08-24T06:05:30;3.20;;;2.90;;
23302;SDS011;11820;48.738;9.092;2022-08-24T06:07:55;3.33;;;3.03;;
23302;SDS011;11820;48.738;9.092;2022-08-24T06:10:20;4.07;;;2.80;;
23302;SDS011;11820;48.738;9.092;2022-08-24T06:12:46;5.03;;;3.10;;
23302;SDS011;11820;48.738;9.092;2022-08-24T06:15:12;7.27;;;3.67;;
23302;SDS011;11820;48.738;9.092;2022-08-24T06:17:38;3.03;;;2.83;;
23302;SDS011;11820;48.738;9.092;2022-08-24T06:20:04;4.03;;;3.30;;
23302;SDS011;11820;48.738;9.092;2022-08-24T06:22:31;3.50;;;2.83;;
23302;SDS011;11820;48.738;9.092;2022-08-24T06:24:56;3.23;;;2.83;;
23302;SDS011;11820;48.738;9.092;2022-08-24T06:27:40;6.00;;;3.00;;
23302;SDS011;11820;48.738;9.092;2022-08-24T06:30:06;4.30;;;3.20;;
23302;SDS011;11820;48.738;9.092;2022-08-24T06:32:34;3.33;;;3.03;;
23302;SDS011;11820;48.738;9.092;2022-08-24T06:34:59;3.53;;;3.13;;
23302;SDS011;11820;48.738;9.092;2022-08-24T06:37:25;5.20;;;2.93;;
23302;SDS011;11820;48.738;9.092;2022-08-24T06:39:54;4.03;;;2.90;;
23302;SDS011;11820;48.738;9.092;2022-08-24T06:42:21;3.47;;;2.70;;
23302;SDS011;11820;48.738;9.092;2022-08-24T06:44:53;3.40;;;2.40;;
23302;SDS011;11820;48.738;9.092;2022-08-24T06:47:18;3.27;;;2.57;;
23302;SDS011;11820;48.738;9.092;2022-08-24T06:49:44;2.90;;;2.53;;
23302;SDS011;11820;48.738;9.092;2022-08-24T06:52:09;2.40;;;2.20;;
23302;SDS011;11820;48.738;9.092;2022-08-24T06:54:38;2.67;;;2.07;;
23302;SDS011;11820;48.738;9.092;2022-08-24T06:57:04;3.03;;;2.27;;
23302;SDS011;11820;48.738;9.092;2022-08-24T06:59:31;3.97;;;2.40;;
23302;SDS011;11820;48.738;9.092;2022-08-24T07:01:57;4.87;;;2.60;;
23302;SDS011;11820;48.738;9.092;2022-08-24T07:04:23;5.00;;;2.33;;
23302;SDS011;11820;48.738;9.092;2022-08-24T07:06:50;3.70;;;2.60;;
23302;SDS011;11820;48.738;9.092;2022-08-24T07:09:16;4.80;;;2.30;;
23302;SDS011;11820;48.738;9.092;2022-08-24T07:11:42;4.83;;;2.47;;
23302;SDS011;11820;48.738;9.092;2022-08-24T07:14:07;4.50;;;2.40;;
23302;SDS011;11820;48.738;9.092;2022-08-24T07:16:32;3.63;;;2.30;;
23302;SDS011;11820;48.738;9.092;2022-08-24T07:18:59;4.60;;;2.50;;
23302;SDS011;11820;48.738;9.092;2022-08-24T07:21:25;3.80;;;2.30;;
23302;SDS011;11820;48.738;9.092;2022-08-24T07:23:55;4.90;;;2.17;;
23302;SDS011;11820;48.738;9.092;2022-08-24T07:26:22;4.37;;;2.90;;
23302;SDS011;11820;48.738;9.092;2022-08-24T07:28:50;3.97;;;2.27;;
23302;SDS011;11820;48.738;9.092;2022-08-24T07:31:17;4.63;;;2.53;;
23302;SDS011;11820;48.738;9.092;2022-08-24T07:33:43;4.37;;;2.40;;
23302;SDS011;11820;48.738;9.092;2022-08-24T07:36:09;3.73;;;2.60;;
23302;SDS011;11820;48.738;9.092;2022-08-24T07:38:34;3.83;;;2.37;;
23302;SDS011;11820;48.738;9.092;2022-08-24T07:41:00;4.50;;;2.57;;
23302;SDS011;11820;48.738;9.092;2022-08-24T07:43:26;4.97;;;2.33;;
23302;SDS011;11820;48.738;9.092;2022-08-24T07:45:51;3.17;;;2.50;;
23302;SDS011;11820;48.738;9.092;2022-08-24T07:48:17;5.60;;;2.07;;
23302;SDS011;11820;48.738;9.092;2022-08-24T07:50:42;4.37;;;2.30;;
23302;SDS011;11820;48.738;9.092;2022-08-24T07:53:08;2.83;;;2.33;;
23302;SDS011;11820;48.738;9.092;2022-08-24T07:55:33;6.20;;;2.10;;
23302;SDS011;11820;48.738;9.092;2022-08-24T07:57:59;3.43;;;2.20;;
23302;SDS011;11820;48.738;9.092;2022-08-24T08:00:34;4.10;;;2.60;;
23302;SDS011;11820;48.738;9.092;2022-08-24T08:03:03;2.13;;;1.90;;
23302;SDS011;11820;48.738;9.092;2022-08-24T08:05:53;3.70;;;2.10;;
23302;SDS011;11820;48.738;9.092;2022-08-24T08:08:20;4.43;;;2.40;;
23302;SDS011;11820;48.738;9.092;2022-08-24T08:10:45;5.53;;;2.57;;
23302;SDS011;11820;48.738;9.092;2022-08-24T08:13:10;5.30;;;2.50;;
23302;SDS011;11820;48.738;9.092;2022-08-24T08:15:36;2.77;;;1.90;;
23302;SDS011;11820;48.738;9.092;2022-08-24T08:18:01;7.37;;;2.43;;
23302;SDS011;11820;48.738;9.092;2022-08-24T08:20:26;4.87;;;2.60;;
23302;SDS011;11820;48.738;9.092;2022-08-24T08:22:52;4.07;;;2.57;;
23302;SDS011;11820;48.738;9.092;2022-08-24T08:25:36;8.63;;;3.17;;
23302;SDS011;11820;48.738;9.092;2022-08-24T08:28:02;5.90;;;2.20;;
23302;SDS011;11820;48.738;9.092;2022-08-24T08:30:29;5.27;;;2.43;;
23302;SDS011;11820;48.738;9.092;2022-08-24T08:32:55;4.47;;;2.23;;
23302;SDS011;11820;48.738;9.092;2022-08-24T08:35:20;5.20;;;2.20;;
23302;SDS011;11820;48.738;9.092;2022-08-24T08:37:46;6.20;;;2.30;;
23302;SDS011;11820;48.738;9.092;2022-08-24T08:40:16;3.77;;;2.40;;
23302;SDS011;11820;48.738;9.092;2022-08-24T08:45:30;4.17;;;2.30;;
23302;SDS011;11820;48.738;9.092;2022-08-24T08:56:27;4.27;;;1.90;;
23302;SDS011;11820;48.738;9.092;2022-08-24T08:59:13;4.60;;;1.90;;
23302;SDS011;11820;48.738;9.092;2022-08-24T09:04:21;2.73;;;1.70;;
23302;SDS011;11820;48.738;9.092;2022-08-24T09:10:02;2.83;;;1.73;;
23302;SDS011;11820;48.738;9.092;2022-08-24T09:21:22;3.17;;;1.77;;
23302;SDS011;11820;48.738;9.092;2022-08-24T09:24:20;1.87;;;1.30;;
23302;SDS011;11820;48.738;9.092;2022-08-24T09:27:05;1.77;;;1.53;;
23302;SDS011;11820;48.738;9.092;2022-08-24T09:55:48;2.57;;;1.47;;
23302;SDS011;11820;48.738;9.092;2022-08-24T10:10:08;6.80;;;2.00;;
23302;SDS011;11820;48.738;9.092;2022-08-24T10:15:54;3.77;;;1.60;;
23302;SDS011;11820;48.738;9.092;2022-08-24T10:21:56;3.53;;;1.70;;
23302;SDS011;11820;48.738;9.092;2022-08-24T10:30:24;3.27;;;1.67;;
23302;SDS011;11820;48.738;9.092;2022-08-24T10:33:22;1.60;;;1.27;;
23302;SDS011;11820;48.738;9.092;2022-08-24T10:44:38;1.70;;;1.40;;
23302;SDS011;11820;48.738;9.092;2022-08-24T10:47:19;2.00;;;1.60;;
23302;SDS011;11820;48.738;9.092;2022-08-24T10:50:32;2.70;;;1.80;;
23302;SDS011;11820;48.738;9.092;2022-08-24T10:55:30;1.83;;;1.43;;
23302;SDS011;11820;48.738;9.092;2022-08-24T11:00:35;4.67;;;1.60;;
23302;SDS011;11820;48.738;9.092;2022-08-24T11:03:15;2.07;;;1.60;;
23302;SDS011;11820;48.738;9.092;2022-08-24T11:05:47;3.00;;;1.43;;
23302;SDS011;11820;48.738;9.092;2022-08-24T11:11:11;1.50;;;1.40;;
23302;SDS011;11820;48.738;9.092;2022-08-24T11:13:55;4.40;;;1.40;;
23302;SDS011;11820;48.738;9.092;2022-08-24T11:16:45;3.80;;;1.90;;
23302;SDS011;11820;48.738;9.092;2022-08-24T11:19:12;2.63;;;1.53;;
23302;SDS011;11820;48.738;9.092;2022-08-24T11:21:54;2.50;;;1.83;;
23302;SDS011;11820;48.738;9.092;2022-08-24T11:24:25;1.33;;;1.23;;
23302;SDS011;11820;48.738;9.092;2022-08-24T11:35:51;2.30;;;1.67;;
23302;SDS011;11820;48.738;9.092;2022-08-24T11:38:14;1.60;;;1.47;;
23302;SDS011;11820;48.738;9.092;2022-08-24T11:41:04;1.90;;;1.67;;
23302;SDS011;11820;48.738;9.092;2022-08-24T11:49:19;2.97;;;1.90;;
23302;SDS011;11820;48.738;9.092;2022-08-24T11:51:53;1.80;;;1.50;;
23302;SDS011;11820;48.738;9.092;2022-08-24T11:54:37;1.63;;;1.42;;
23302;SDS011;11820;48.738;9.092;2022-08-24T11:57:29;1.70;;;1.35;;
23302;SDS011;11820;48.738;9.092;2022-08-24T12:00:07;2.10;;;1.35;;
23302;SDS011;11820;48.738;9.092;2022-08-24T12:16:33;1.58;;;1.48;;
23302;SDS011;11820;48.738;9.092;2022-08-24T12:21:54;2.92;;;1.60;;
23302;SDS011;11820;48.738;9.092;2022-08-24T12:26:52;3.10;;;1.40;;
23302;SDS011;11820;48.738;9.092;2022-08-24T12:29:30;1.77;;;1.40;;
23302;SDS011;11820;48.738;9.092;2022-08-24T12:32:02;1.30;;;1.20;;
23302;SDS011;11820;48.738;9.092;2022-08-24T12:42:54;1.67;;;1.20;;
23302;SDS011;11820;48.738;9.092;2022-08-24T12:45:25;2.95;;;1.33;;
23302;SDS011;11820;48.738;9.092;2022-08-24T12:47:56;3.13;;;1.23;;
23302;SDS011;11820;48.738;9.092;2022-08-24T12:59:19;1.35;;;1.25;;
23302;SDS011;11820;48.738;9.092;2022-08-24T13:02:05;1.40;;;1.30;;
23302;SDS011;11820;48.738;9.092;2022-08-24T13:09:44;1.45;;;1.10;;
23302;SDS011;11820;48.738;9.092;2022-08-24T13:42:09;1.35;;;1.20;;
23302;SDS011;11820;48.738;9.092;2022-08-24T13:53:12;2.58;;;1.10;;
23302;SDS011;11820;48.738;9.092;2022-08-24T13:55:53;3.80;;;1.30;;
23302;SDS011;11820;48.738;9.092;2022-08-24T13:58:43;2.28;;;1.08;;
23302;SDS011;11820;48.738;9.092;2022-08-24T14:01:25;1.65;;;1.10;;
23302;SDS011;11820;48.738;9.092;2022-08-24T14:04:06;0.70;;;0.70;;
23302;SDS011;11820;48.738;9.092;2022-08-24T14:09:16;1.52;;;0.90;;
23302;SDS011;11820;48.738;9.092;2022-08-24T14:11:58;1.75;;;1.20;;
23302;SDS011;11820;48.738;9.092;2022-08-24T14:14:50;2.63;;;1.20;;
23302;SDS011;11820;48.738;9.092;2022-08-24T14:25:41;2.75;;;1.20;;
23302;SDS011;11820;48.738;9.092;2022-08-24T14:31:13;1.40;;;1.30;;
23302;SDS011;11820;48.738;9.092;2022-08-24T14:36:50;3.42;;;1.10;;
23302;SDS011;11820;48.738;9.092;2022-08-24T14:39:42;1.27;;;1.13;;
23302;SDS011;11820;48.738;9.092;2022-08-24T14:55:57;4.45;;;1.40;;
23302;SDS011;11820;48.738;9.092;2022-08-24T14:58:41;1.08;;;1.05;;
23302;SDS011;11820;48.738;9.092;2022-08-24T15:07:20;1.30;;;1.20;;
23302;SDS011;11820;48.738;9.092;2022-08-24T15:09:50;2.13;;;1.25;;
23302;SDS011;11820;48.738;9.092;2022-08-24T15:20:38;1.75;;;1.40;;
23302;SDS011;11820;48.738;9.092;2022-08-24T15:23:12;1.20;;;1.10;;
23302;SDS011;11820;48.738;9.092;2022-08-24T15:25:53;1.42;;;1.33;;
23302;SDS011;11820;48.738;9.092;2022-08-24T15:28:25;1.25;;;1.15;;
23302;SDS011;11820;48.738;9.092;2022-08-24T15:31:17;1.95;;;1.30;;
23302;SDS011;11820;48.738;9.092;2022-08-24T15:34:16;1.70;;;1.25;;
23302;SDS011;11820;48.738;9.092;2022-08-24T15:36:35;1.77;;;1.40;;
23302;SDS011;11820;48.738;9.092;2022-08-24T15:39:01;1.30;;;1.20;;
23302;SDS011;11820;48.738;9.092;2022-08-24T15:41:30;1.63;;;1.25;;
23302;SDS011;11820;48.738;9.092;2022-08-24T15:44:07;1.73;;;1.15;;
23302;SDS011;11820;48.738;9.092;2022-08-24T15:46:44;1.48;;;1.30;;
23302;SDS011;11820;48.738;9.092;2022-08-24T15:51:49;10.23;;;1.65;;
23302;SDS011;11820;48.738;9.092;2022-08-24T15:56:59;1.85;;;1.40;;
23302;SDS011;11820;48.738;9.092;2022-08-24T15:59:30;3.38;;;1.40;;
23302;SDS011;11820;48.738;9.092;2022-08-24T16:04:51;2.53;;;1.20;;
23302;SDS011;11820;48.738;9.092;2022-08-24T16:07:28;1.73;;;1.40;;
23302;SDS011;11820;48.738;9.092;2022-08-24T16:10:05;3.22;;;1.48;;
23302;SDS011;11820;48.738;9.092;2022-08-24T16:12:33;1.25;;;1.15;;
23302;SDS011;11820;48.738;9.092;2022-08-24T16:15:13;1.73;;;1.40;;
23302;SDS011;11820;48.738;9.092;2022-08-24T16:22:57;2.85;;;1.80;;
23302;SDS011;11820;48.738;9.092;2022-08-24T16:25:27;1.73;;;1.50;;
23302;SDS011;11820;48.738;9.092;2022-08-24T16:31:02;1.40;;;1.30;;
23302;SDS011;11820;48.738;9.092;2022-08-24T16:36:00;1.73;;;1.40;;
23302;SDS011;11820;48.738;9.092;2022-08-24T16:38:30;2.75;;;1.50;;
23302;SDS011;11820;48.738;9.092;2022-08-24T16:40:58;2.33;;;1.50;;
23302;SDS011;11820;48.738;9.092;2022-08-24T16:43:25;2.35;;;1.60;;
23302;SDS011;11820;48.738;9.092;2022-08-24T16:45:52;3.63;;;1.60;;
23302;SDS011;11820;48.738;9.092;2022-08-24T16:48:18;2.95;;;1.45;;
23302;SDS011;11820;48.738;9.092;2022-08-24T16:50:44;1.33;;;1.23;;
23302;SDS011;11820;48.738;9.092;2022-08-24T16:53:10;1.45;;;1.33;;
23302;SDS011;11820;48.738;9.092;2022-08-24T16:55:35;1.60;;;1.50;;
23302;SDS011;11820;48.738;9.092;2022-08-24T16:58:01;3.17;;;1.83;;
23302;SDS011;11820;48.738;9.092;2022-08-24T17:00:26;2.60;;;1.35;;
23302;SDS011;11820;48.738;9.092;2022-08-24T17:02:52;1.40;;;1.30;;
23302;SDS011;11820;48.738;9.092;2022-08-24T17:05:18;1.70;;;1.60;;
23302;SDS011;11820;48.738;9.092;2022-08-24T17:07:44;1.60;;;1.50;;
23302;SDS011;11820;48.738;9.092;2022-08-24T17:10:11;2.40;;;1.47;;
23302;SDS011;11820;48.738;9.092;2022-08-24T17:12:38;2.23;;;1.30;;
23302;SDS011;11820;48.738;9.092;2022-08-24T17:15:04;2.37;;;1.60;;
23302;SDS011;11820;48.738;9.092;2022-08-24T17:17:31;1.60;;;1.50;;
23302;SDS011;11820;48.738;9.092;2022-08-24T17:19:57;1.80;;;1.70;;
23302;SDS011;11820;48.738;9.092;2022-08-24T17:22:22;2.47;;;1.67;;
23302;SDS011;11820;48.738;9.092;2022-08-24T17:24:49;2.10;;;1.50;;
23302;SDS011;11820;48.738;9.092;2022-08-24T17:27:15;2.23;;;1.50;;
23302;SDS011;11820;48.738;9.092;2022-08-24T17:29:42;2.73;;;1.30;;
23302;SDS011;11820;48.738;9.092;2022-08-24T17:32:09;2.20;;;1.70;;
23302;SDS011;11820;48.738;9.092;2022-08-24T17:34:36;3.30;;;1.47;;
23302;SDS011;11820;48.738;9.092;2022-08-24T17:37:02;2.40;;;1.80;;
23302;SDS011;11820;48.738;9.092;2022-08-24T17:39:28;3.73;;;1.80;;
23302;SDS011;11820;48.738;9.092;2022-08-24T17:41:55;2.60;;;1.80;;
23302;SDS011;11820;48.738;9.092;2022-08-24T17:44:23;1.47;;;1.30;;
23302;SDS011;11820;48.738;9.092;2022-08-24T17:46:51;2.60;;;1.60;;
23302;SDS011;11820;48.738;9.092;2022-08-24T17:49:18;1.57;;;1.40;;
23302;SDS011;11820;48.738;9.092;2022-08-24T17:51:45;1.63;;;1.50;;
23302;SDS011;11820;48.738;9.092;2022-08-24T17:54:10;1.80;;;1.50;;
23302;SDS011;11820;48.738;9.092;2022-08-24T17:56:36;1.70;;;1.60;;
23302;SDS011;11820;48.738;9.092;2022-08-24T17:59:05;2.70;;;2.50;;
23302;SDS011;11820;48.738;9.092;2022-08-24T18:01:52;3.67;;;2.27;;
23302;SDS011;11820;48.738;9.092;2022-08-24T18:04:22;2.73;;;1.80;;
23302;SDS011;11820;48.738;9.092;2022-08-24T18:06:52;2.37;;;1.90;;
23302;SDS011;11820;48.738;9.092;2022-08-24T18:09:30;2.90;;;1.83;;
23302;SDS011;11820;48.738;9.092;2022-08-24T18:12:00;1.73;;;1.63;;
23302;SDS011;11820;48.738;9.092;2022-08-24T18:14:27;1.40;;;1.30;;
23302;SDS011;11820;48.738;9.092;2022-08-24T18:16:54;2.73;;;1.60;;
23302;SDS011;11820;48.738;9.092;2022-08-24T18:19:21;1.63;;;1.53;;
23302;SDS011;11820;48.738;9.092;2022-08-24T18:21:47;1.97;;;1.63;;
23302;SDS011;11820;48.738;9.092;2022-08-24T18:24:12;2.70;;;1.70;;
23302;SDS011;11820;48.738;9.092;2022-08-24T18:26:38;1.80;;;1.50;;
23302;SDS011;11820;48.738;9.092;2022-08-24T18:29:09;2.10;;;1.70;;
23302;SDS011;11820;48.738;9.092;2022-08-24T18:31:37;2.20;;;2.00;;
23302;SDS011;11820;48.738;9.092;2022-08-24T18:34:03;1.60;;;1.50;;
23302;SDS011;11820;48.738;9.092;2022-08-24T18:36:29;3.23;;;1.80;;
23302;SDS011;11820;48.738;9.092;2022-08-24T18:38:55;2.53;;;1.70;;
23302;SDS011;11820;48.738;9.092;2022-08-24T18:41:20;3.00;;;1.97;;
23302;SDS011;11820;48.738;9.092;2022-08-24T18:43:51;3.03;;;1.80;;
23302;SDS011;11820;48.738;9.092;2022-08-24T18:46:18;1.60;;;1.50;;
23302;SDS011;11820;48.738;9.092;2022-08-24T18:48:43;1.97;;;1.77;;
23302;SDS011;11820;48.738;9.092;2022-08-24T18:51:09;3.70;;;1.67;;
23302;SDS011;11820;48.738;9.092;2022-08-24T18:53:37;1.97;;;1.73;;
23302;SDS011;11820;48.738;9.092;2022-08-24T18:56:03;2.60;;;1.80;;
23302;SDS011;11820;48.738;9.092;2022-08-24T18:58:28;1.83;;;1.63;;
23302;SDS011;11820;48.738;9.092;2022-08-24T19:00:54;1.93;;;1.73;;
23302;SDS011;11820;48.738;9.092;2022-08-24T19:03:19;1.67;;;1.57;;
23302;SDS011;11820;48.738;9.092;2022-08-24T19:05:47;2.40;;;1.83;;
23302;SDS011;11820;48.738;9.092;2022-08-24T19:08:12;3.80;;;2.57;;
23302;SDS011;11820;48.738;9.092;2022-08-24T19:10:38;12.03;;;8.73;;
23302;SDS011;11820;48.738;9.092;2022-08-24T19:13:08;4.73;;;2.40;;
23302;SDS011;11820;48.738;9.092;2022-08-24T19:15:39;3.57;;;1.93;;
23302;SDS011;11820;48.738;9.092;2022-08-24T19:18:09;3.20;;;1.80;;